Time;durP1;ratioP1;P1;durP2;ratioP2;P2;SDS_P1;SDS_P2;PMS_P1;PMS_P2;Temp;Humidity;BMP_temperature;BMP_pressure;BME280_temperature;BME280_humidity;BME280_pressure;Samples;Min_cycle;Max_cycle;Signal;HPM_P1;HPM_P2
2021/08/18 05:03:31;;;;;;;;;;;;;;;26.03;61.99;99864.52;1824902;77;20650;-71
2021/08/18 05:05:59;;;;;;;;;;;;;;;26.16;61.00;99864.14;1768674;80;20078;-70
2021/08/18 05:08:31;;;;;;;;;;;;;;;26.27;60.35;99856.14;1796428;80;21121;-70
2021/08/18 05:10:58;;;;;;;;;;;;;;;26.45;60.14;99863.70;1765274;80;20104;-65
2021/08/18 05:13:25;;;;;;;;;;;;;;;26.76;59.38;99862.01;1791461;78;20101;-70
2021/08/18 05:15:54;;;;;;;;;;;;;;;27.07;57.88;99866.95;1785295;80;20516;-71
2021/08/18 05:18:21;;;;;;;;;;;;;;;27.19;57.13;99870.20;1789983;79;20150;-67
2021/08/18 05:20:51;;;;;;;;;;;;;;;27.26;56.88;99868.07;1797064;79;20082;-70
2021/08/18 05:23:18;;;;;;;;;;;;;;;27.28;56.51;99870.04;1821151;78;20106;-67
2021/08/18 05:25:46;;;;;;;;;;;;;;;27.31;56.43;99864.30;1797588;78;20105;-66
2021/08/18 05:28:13;;;;;;;;;;;;;;;27.37;55.97;99869.68;1816536;78;20144;-67
2021/08/18 05:30:40;;;;;;;;;;;;;;;27.53;55.35;99873.88;1800013;78;20091;-68
2021/08/18 05:33:09;;;;;;;;;;;;;;;27.61;55.56;99879.57;1784882;80;20096;-66
2021/08/18 05:35:36;;;;;;;;;;;;;;;27.79;54.57;99883.86;1780675;78;20113;-66
2021/08/18 05:38:03;;;;;;;;;;;;;;;27.88;54.46;99890.17;1789985;78;20120;-68
2021/08/18 05:40:31;;;;;;;;;;;;;;;27.94;54.34;99893.08;1776706;78;20156;-70
2021/08/18 05:42:58;;;;;;;;;;;;;;;27.93;53.73;99893.59;1793664;78;20084;-69
2021/08/18 05:45:25;;;;;;;;;;;;;;;27.86;53.85;99891.41;1784951;80;21183;-67
2021/08/18 05:47:52;;;;;;;;;;;;;;;27.79;53.68;99888.70;1797508;78;20141;-68
2021/08/18 05:50:19;;;;;;;;;;;;;;;27.74;53.50;99885.80;1789723;78;20351;-68
2021/08/18 05:52:45;;;;;;;;;;;;;;;27.71;53.37;99890.21;1790379;78;20149;-70
2021/08/18 05:55:13;;;;;;;;;;;;;;;27.78;53.35;99888.91;1804401;78;20171;-67
2021/08/18 05:57:41;;;;;;;;;;;;;;;27.97;53.36;99894.02;1794538;78;20193;-68
2021/08/18 06:00:09;;;;;;;;;;;;;;;28.15;52.91;99888.38;1781355;78;20127;-67
2021/08/18 06:02:36;;;;;;;;;;;;;;;28.27;52.26;99887.81;1782400;78;20134;-69
2021/08/18 06:05:06;;;;;;;;;;;;;;;28.28;51.89;99889.46;1782784;80;20107;-66
2021/08/18 06:07:32;;;;;;;;;;;;;;;28.30;51.79;99895.44;1777839;79;20097;-65
2021/08/18 06:09:59;;;;;;;;;;;;;;;28.40;51.62;99886.46;1790595;78;21005;-63
2021/08/18 06:12:26;;;;;;;;;;;;;;;28.58;50.91;99891.22;1779211;79;20107;-66
2021/08/18 06:14:55;;;;;;;;;;;;;;;28.59;50.39;99891.53;1784673;80;20093;-67
2021/08/18 06:17:25;;;;;;;;;;;;;;;28.40;50.37;99891.81;1778673;80;20185;-66
2021/08/18 06:19:53;;;;;;;;;;;;;;;28.13;50.77;99893.10;1779465;79;20176;-65
2021/08/18 06:22:21;;;;;;;;;;;;;;;27.83;50.96;99899.32;1788717;78;21078;-67
2021/08/18 06:24:51;;;;;;;;;;;;;;;27.65;51.22;99903.05;1784032;79;20156;-67
2021/08/18 06:27:20;;;;;;;;;;;;;;;27.59;51.44;99905.21;1782994;78;20490;-67
2021/08/18 06:29:51;;;;;;;;;;;;;;;27.73;51.49;99902.05;1795003;78;20094;-65
2021/08/18 06:32:20;;;;;;;;;;;;;;;28.05;51.11;99897.81;1800968;79;20078;-67
2021/08/18 06:34:49;;;;;;;;;;;;;;;28.27;50.02;99895.33;1739039;80;21663;-72
2021/08/18 06:37:17;;;;;;;;;;;;;;;28.24;49.44;99886.87;1723230;81;20094;-68
2021/08/18 06:39:44;;;;;;;;;;;;;;;28.16;49.31;99887.86;1733775;81;20173;-67
2021/08/18 06:42:11;;;;;;;;;;;;;;;28.14;49.47;99886.72;1731816;81;20098;-78
2021/08/18 06:44:38;;;;;;;;;;;;;;;28.18;49.41;99880.45;1738553;81;20389;-72
2021/08/18 06:47:05;;;;;;;;;;;;;;;28.24;49.20;99874.31;1722759;82;21922;-65
2021/08/18 06:49:33;;;;;;;;;;;;;;;28.25;49.20;99873.80;1732542;81;20197;-67
2021/08/18 06:52:00;;;;;;;;;;;;;;;28.38;48.95;99870.63;1713294;81;20094;-67
2021/08/18 06:54:26;;;;;;;;;;;;;;;28.54;48.44;99862.67;1721915;81;20966;-67
2021/08/18 06:56:54;;;;;;;;;;;;;;;28.47;47.86;99859.99;1728732;81;20170;-64
2021/08/18 06:59:21;;;;;;;;;;;;;;;28.28;48.58;99858.15;1726669;82;21040;-61
2021/08/18 07:01:47;;;;;;;;;;;;;;;28.16;49.29;99859.75;1731779;81;20129;-62
2021/08/18 07:04:14;;;;;;;;;;;;;;;28.00;49.18;99859.61;1724955;81;20463;-63
2021/08/18 07:06:42;;;;;;;;;;;;;;;27.60;49.90;99859.19;1729332;81;20107;-65
2021/08/18 07:09:09;;;;;;;;;;;;;;;27.26;50.66;99866.22;1738045;82;20142;-70
2021/08/18 07:11:41;;;;;;;;;;;;;;;26.91;51.41;99860.03;1731062;81;21088;-68
2021/08/18 07:14:09;;;;;;;;;;;;;;;26.69;52.04;99857.13;1732757;81;20170;-67
2021/08/18 07:16:36;;;;;;;;;;;;;;;26.41;52.25;99859.25;1725168;82;20148;-66
2021/08/18 07:19:05;;;;;;;;;;;;;;;26.13;52.90;99859.19;1730959;82;20141;-71
2021/08/18 07:21:33;;;;;;;;;;;;;;;25.93;53.63;99866.69;1733844;81;20126;-63
2021/08/18 07:24:01;;;;;;;;;;;;;;;25.94;54.22;99867.01;1731580;81;21145;-64
2021/08/18 07:26:28;;;;;;;;;;;;;;;26.11;54.20;99861.22;1733238;82;20130;-64
2021/08/18 07:28:55;;;;;;;;;;;;;;;26.34;53.87;99854.39;1738551;81;20108;-66
2021/08/18 07:31:25;;;;;;;;;;;;;;;26.64;53.32;99853.70;1735252;82;21059;-64
2021/08/18 07:33:55;;;;;;;;;;;;;;;27.03;52.38;99853.16;1745159;81;20117;-69
2021/08/18 07:36:23;;;;;;;;;;;;;;;27.46;51.09;99853.78;1726742;81;21101;-68
2021/08/18 07:38:49;;;;;;;;;;;;;;;27.66;50.55;99849.86;1731492;81;20468;-65
2021/08/18 07:41:16;;;;;;;;;;;;;;;27.75;50.01;99842.48;1696893;82;20144;-65
2021/08/18 07:43:43;;;;;;;;;;;;;;;27.67;50.03;99854.70;1732462;81;20130;-63
2021/08/18 07:46:10;;;;;;;;;;;;;;;27.56;50.06;99851.56;1727088;81;20407;-66
2021/08/18 07:48:37;;;;;;;;;;;;;;;27.41;50.31;99852.22;1736349;81;21146;-64
2021/08/18 07:51:04;;;;;;;;;;;;;;;27.17;50.88;99848.21;1726079;81;20150;-65
2021/08/18 07:53:32;;;;;;;;;;;;;;;26.98;51.07;99842.23;1722617;81;20085;-67
2021/08/18 07:56:00;;;;;;;;;;;;;;;26.79;51.54;99845.05;1736300;81;20150;-67
2021/08/18 07:58:27;;;;;;;;;;;;;;;26.57;52.21;99843.47;1720882;81;20117;-67
2021/08/18 08:00:54;;;;;;;;;;;;;;;26.43;52.86;99843.86;1724192;81;21119;-64
2021/08/18 08:03:21;;;;;;;;;;;;;;;26.37;53.31;99845.17;1728735;81;20434;-64
2021/08/18 08:05:48;;;;;;;;;;;;;;;26.29;53.50;99847.94;1722647;81;20420;-63
2021/08/18 08:08:15;;;;;;;;;;;;;;;26.13;53.97;99848.51;1733005;81;20186;-65
2021/08/18 08:10:42;;;;;;;;;;;;;;;26.04;54.46;99860.32;1735941;81;20282;-67
2021/08/18 08:13:10;;;;;;;;;;;;;;;26.01;54.72;99862.54;1721139;82;21170;-73
2021/08/18 08:15:37;;;;;;;;;;;;;;;25.95;54.99;99866.00;1726675;81;20650;-66
2021/08/18 08:18:04;;;;;;;;;;;;;;;25.87;55.34;99864.27;1737643;82;20185;-69
2021/08/18 08:20:31;;;;;;;;;;;;;;;25.82;55.50;99858.16;1727450;81;20136;-64
2021/08/18 08:22:57;;;;;;;;;;;;;;;25.80;55.51;99867.36;1734045;82;20121;-66
2021/08/18 08:25:24;;;;;;;;;;;;;;;25.75;55.68;99871.09;1739383;82;21119;-69
2021/08/18 08:27:51;;;;;;;;;;;;;;;25.70;55.52;99880.99;1749652;81;20118;-65
2021/08/18 08:30:18;;;;;;;;;;;;;;;25.61;55.80;99876.74;1759946;81;20157;-70
2021/08/18 08:32:45;;;;;;;;;;;;;;;25.54;55.99;99885.19;1752426;81;21344;-69
2021/08/18 08:35:13;;;;;;;;;;;;;;;25.44;56.33;99883.31;1742632;82;20181;-66
2021/08/18 08:37:40;;;;;;;;;;;;;;;25.35;57.04;99893.24;1738712;81;21141;-71
2021/08/18 08:40:08;;;;;;;;;;;;;;;25.29;57.42;99899.81;1737049;82;20451;-67
2021/08/18 08:42:37;;;;;;;;;;;;;;;25.23;57.92;99899.53;1714729;83;20152;-71
2021/08/18 08:45:05;;;;;;;;;;;;;;;25.12;58.21;99904.52;1714725;83;20172;-66
2021/08/18 08:47:35;;;;;;;;;;;;;;;25.05;58.69;99907.58;1736189;82;20464;-70
2021/08/18 08:50:06;;;;;;;;;;;;;;;24.93;59.06;99922.64;1736939;82;21164;-71
2021/08/18 08:52:35;;;;;;;;;;;;;;;24.84;59.44;99923.72;1733937;83;20178;-66
2021/08/18 08:55:03;;;;;;;;;;;;;;;24.71;59.41;99927.52;1734135;83;20099;-68
2021/08/18 08:57:30;;;;;;;;;;;;;;;24.58;59.75;99933.95;1733748;83;20114;-70
2021/08/18 08:59:57;;;;;;;;;;;;;;;24.49;60.12;99925.70;1734173;83;20417;-70
2021/08/18 09:02:24;;;;;;;;;;;;;;;24.42;60.20;99920.25;1733012;81;22027;-68
2021/08/18 09:04:52;;;;;;;;;;;;;;;24.39;60.29;99914.48;1733153;82;20201;-71
2021/08/18 09:07:21;;;;;;;;;;;;;;;24.32;60.21;99908.21;1742864;82;20111;-71
2021/08/18 09:09:58;;;;;;;;;;;;;;;24.27;60.28;99907.41;1733346;81;20136;-70
2021/08/18 09:12:36;;;;;;;;;;;;;;;24.25;60.43;99902.77;1730255;82;20103;-72
2021/08/18 09:15:16;;;;;;;;;;;;;;;24.23;60.31;99894.93;1741477;82;21182;-73
2021/08/18 09:17:45;;;;;;;;;;;;;;;24.25;60.47;99902.77;1741044;82;20131;-71
2021/08/18 09:20:14;;;;;;;;;;;;;;;24.29;60.54;99899.25;1741570;82;20083;-74
2021/08/18 09:22:54;;;;;;;;;;;;;;;24.29;60.49;99895.26;1741443;82;20123;-69
2021/08/18 09:25:23;;;;;;;;;;;;;;;24.23;60.61;99884.28;1737872;82;20413;-68
2021/08/18 09:28:04;;;;;;;;;;;;;;;24.20;60.80;99882.48;1725607;83;20373;-67
2021/08/18 09:30:34;;;;;;;;;;;;;;;24.12;61.02;99878.03;1725956;82;20130;-66
2021/08/18 09:33:15;;;;;;;;;;;;;;;24.07;61.13;99871.59;1739936;82;20410;-73
2021/08/18 09:35:42;;;;;;;;;;;;;;;23.99;61.21;99870.34;1741310;82;20083;-64
2021/08/18 09:38:11;;;;;;;;;;;;;;;23.79;61.68;99865.45;1741177;82;20413;-65
2021/08/18 09:40:40;;;;;;;;;;;;;;;23.72;62.15;99875.63;1739713;82;21139;-65
2021/08/18 09:43:26;;;;;;;;;;;;;;;23.72;62.28;99871.14;1735625;82;20154;-64
2021/08/18 09:46:02;;;;;;;;;;;;;;;23.75;62.40;99862.82;1731850;81;20118;-67
2021/08/18 09:48:31;;;;;;;;;;;;;;;23.82;62.32;99870.43;1730664;81;20151;-66
2021/08/18 09:51:00;;;;;;;;;;;;;;;23.81;62.53;99863.45;1728821;81;20169;-65
2021/08/18 09:53:32;;;;;;;;;;;;;;;23.87;62.45;99866.75;1729543;81;21085;-66
2021/08/18 09:56:15;;;;;;;;;;;;;;;23.89;62.51;99867.40;1733387;81;20178;-66
2021/08/18 09:58:48;;;;;;;;;;;;;;;23.93;62.42;99870.54;1739986;82;20099;-65
2021/08/18 10:01:18;;;;;;;;;;;;;;;24.01;62.25;99876.28;1739439;81;20104;-66
2021/08/18 10:03:48;;;;;;;;;;;;;;;24.06;62.06;99873.92;1741112;82;20084;-65
2021/08/18 10:06:15;;;;;;;;;;;;;;;24.02;61.84;99876.11;1719597;82;21938;-64
2021/08/18 10:08:44;;;;;;;;;;;;;;;23.94;62.25;99880.17;1715251;82;20761;-64
2021/08/18 10:11:14;;;;;;;;;;;;;;;23.88;62.54;99883.53;1714945;83;20431;-64
2021/08/18 10:13:42;;;;;;;;;;;;;;;23.79;62.64;99885.41;1715013;83;20122;-64
2021/08/18 10:16:09;;;;;;;;;;;;;;;23.69;63.00;99888.77;1715090;83;20188;-64
2021/08/18 10:18:39;;;;;;;;;;;;;;;23.61;63.36;99900.77;1715089;83;20097;-66
2021/08/18 10:21:12;;;;;;;;;;;;;;;23.48;63.69;99905.80;1715339;83;20086;-67
2021/08/18 10:23:42;;;;;;;;;;;;;;;23.37;64.09;99899.02;1715078;83;20170;-68
2021/08/18 10:26:09;;;;;;;;;;;;;;;23.26;64.40;99899.38;1715004;83;20114;-66
2021/08/18 10:28:58;;;;;;;;;;;;;;;23.17;64.80;99898.60;1729563;81;20475;-68
2021/08/18 10:31:46;;;;;;;;;;;;;;;23.11;65.16;99899.77;1740584;81;21207;-67
2021/08/18 10:34:25;;;;;;;;;;;;;;;23.05;65.21;99905.27;1753510;81;20148;-67
2021/08/18 10:37:08;;;;;;;;;;;;;;;22.94;65.32;99911.75;1758593;81;20098;-65
2021/08/18 10:39:43;;;;;;;;;;;;;;;22.84;65.52;99920.38;1745220;80;20157;-65
2021/08/18 10:42:17;;;;;;;;;;;;;;;22.69;66.01;99918.06;1714606;82;20145;-65
2021/08/18 10:44:50;;;;;;;;;;;;;;;22.57;66.36;99923.36;1734882;82;22619;-67
2021/08/18 10:47:36;;;;;;;;;;;;;;;22.45;67.72;99916.72;1727048;81;20125;-65
2021/08/18 10:50:17;;;;;;;;;;;;;;;22.31;68.96;99925.35;1751535;81;20137;-66
2021/08/18 10:52:47;;;;;;;;;;;;;;;22.16;70.28;99930.45;1770137;81;20446;-67
2021/08/18 10:55:32;;;;;;;;;;;;;;;22.02;70.99;99925.28;1771054;81;20442;-66
2021/08/18 10:58:02;;;;;;;;;;;;;;;21.91;71.18;99928.22;1770859;81;21153;-66
2021/08/18 11:00:49;;;;;;;;;;;;;;;21.77;71.54;99928.34;1768829;81;20099;-63
2021/08/18 11:03:19;;;;;;;;;;;;;;;21.68;72.62;99923.98;1754397;81;20185;-67
2021/08/18 11:05:50;;;;;;;;;;;;;;;21.56;73.12;99922.64;1735585;81;20428;-68
2021/08/18 11:08:25;;;;;;;;;;;;;;;21.46;73.80;99918.78;1732400;81;20156;-70
2021/08/18 11:10:57;;;;;;;;;;;;;;;21.38;74.10;99905.98;1738376;81;20585;-70
2021/08/18 11:13:25;;;;;;;;;;;;;;;21.30;74.49;99900.14;1740554;81;20399;-69
2021/08/18 11:15:53;;;;;;;;;;;;;;;21.21;75.11;99905.06;1727832;81;20089;-68
2021/08/18 11:18:19;;;;;;;;;;;;;;;21.12;75.81;99902.85;1722441;83;20121;-66
2021/08/18 11:20:45;;;;;;;;;;;;;;;21.06;76.26;99908.77;1734776;81;20170;-68
2021/08/18 11:23:13;;;;;;;;;;;;;;;21.05;76.27;99899.66;1735897;82;23223;-70
2021/08/18 11:25:45;;;;;;;;;;;;;;;20.95;76.73;99902.41;1735792;82;20091;-69
2021/08/18 11:28:12;;;;;;;;;;;;;;;20.90;77.79;99902.03;1734231;81;20466;-74
2021/08/18 11:30:40;;;;;;;;;;;;;;;20.92;78.31;99902.72;1736641;82;20099;-67
2021/08/18 11:33:13;;;;;;;;;;;;;;;20.98;78.81;99906.06;1736694;82;20369;-71
2021/08/18 11:35:49;;;;;;;;;;;;;;;21.01;78.91;99907.08;1733677;82;20094;-71
2021/08/18 11:38:17;;;;;;;;;;;;;;;21.03;78.39;99902.95;1720477;82;20097;-67
2021/08/18 11:40:52;;;;;;;;;;;;;;;21.04;77.89;99892.70;1707724;84;20413;-69
2021/08/18 11:43:37;;;;;;;;;;;;;;;21.02;77.87;99903.45;1707395;83;20113;-66
2021/08/18 11:46:04;;;;;;;;;;;;;;;21.00;78.00;99907.23;1708924;83;20164;-64
2021/08/18 11:48:32;;;;;;;;;;;;;;;20.96;77.78;99902.74;1707436;83;22421;-68
2021/08/18 11:50:59;;;;;;;;;;;;;;;20.93;78.00;99905.20;1720579;82;20091;-71
2021/08/18 11:53:26;;;;;;;;;;;;;;;20.89;78.14;99914.94;1711319;82;20087;-65
2021/08/18 11:56:04;;;;;;;;;;;;;;;20.82;78.16;99915.20;1733331;82;20155;-65
2021/08/18 11:58:35;;;;;;;;;;;;;;;20.76;78.35;99914.04;1727141;83;20126;-72
2021/08/18 12:01:07;;;;;;;;;;;;;;;20.70;78.70;99921.27;1729947;82;22181;-66
2021/08/18 12:03:34;;;;;;;;;;;;;;;20.66;79.21;99917.75;1724235;82;20110;-67
2021/08/18 12:06:05;;;;;;;;;;;;;;;20.65;79.84;99914.27;1737338;82;20448;-64
2021/08/18 12:08:35;;;;;;;;;;;;;;;20.65;79.96;99902.37;1727431;82;20226;-64
2021/08/18 12:11:05;;;;;;;;;;;;;;;20.61;79.66;99894.40;1713318;82;20114;-65
2021/08/18 12:13:46;;;;;;;;;;;;;;;20.54;80.05;99884.08;1706345;83;20149;-65
2021/08/18 12:16:29;;;;;;;;;;;;;;;20.52;80.79;99875.47;1706259;83;20439;-64
2021/08/18 12:19:20;;;;;;;;;;;;;;;20.53;80.93;99861.27;1722060;82;20094;-65
2021/08/18 12:22:10;;;;;;;;;;;;;;;20.54;81.10;99858.47;1721433;82;20500;-62
2021/08/18 12:24:38;;;;;;;;;;;;;;;20.56;81.19;99858.31;1717885;82;20102;-63
2021/08/18 12:27:07;;;;;;;;;;;;;;;20.60;81.36;99859.17;1731437;82;21019;-69
2021/08/18 12:29:34;;;;;;;;;;;;;;;20.69;82.09;99853.95;1715275;82;20135;-67
2021/08/18 12:32:05;;;;;;;;;;;;;;;20.79;82.20;99853.36;1733315;82;20095;-69
2021/08/18 12:34:40;;;;;;;;;;;;;;;20.93;82.14;99846.14;1707533;84;20118;-68
2021/08/18 12:37:21;;;;;;;;;;;;;;;21.09;81.49;99839.63;1707426;84;20085;-71
2021/08/18 12:40:05;;;;;;;;;;;;;;;21.24;80.07;99836.72;1707401;83;21158;-70
2021/08/18 12:42:40;;;;;;;;;;;;;;;21.35;79.73;99836.94;1729018;82;20161;-65
2021/08/18 12:45:10;;;;;;;;;;;;;;;21.48;78.63;99837.81;1736649;82;20591;-65
2021/08/18 12:47:40;;;;;;;;;;;;;;;21.52;77.08;99834.69;1736886;82;20091;-64
2021/08/18 12:50:09;;;;;;;;;;;;;;;21.54;77.37;99834.53;1748728;82;20107;-63
2021/08/18 12:52:35;;;;;;;;;;;;;;;21.61;77.47;99838.16;1754193;82;21128;-64
2021/08/18 12:55:06;;;;;;;;;;;;;;;21.67;76.41;99844.15;1753849;81;20165;-64
2021/08/18 12:57:34;;;;;;;;;;;;;;;21.72;77.00;99841.02;1733711;82;20096;-71
2021/08/18 13:00:01;;;;;;;;;;;;;;;21.77;75.38;99832.09;1712935;82;20125;-66
2021/08/18 13:02:28;;;;;;;;;;;;;;;21.75;75.22;99842.02;1706226;83;20137;-65
2021/08/18 13:04:55;;;;;;;;;;;;;;;21.71;76.03;99837.53;1708774;82;21138;-64
2021/08/18 13:07:21;;;;;;;;;;;;;;;21.75;75.22;99833.58;1721917;83;20077;-69
2021/08/18 13:09:48;;;;;;;;;;;;;;;21.83;74.58;99838.06;1721387;83;20420;-66
2021/08/18 13:12:18;;;;;;;;;;;;;;;21.87;73.72;99825.66;1727078;81;20157;-66
2021/08/18 13:14:46;;;;;;;;;;;;;;;21.88;73.92;99815.88;1689616;83;20093;-64
2021/08/18 13:17:13;;;;;;;;;;;;;;;21.96;74.32;99822.02;1712505;82;21070;-67
2021/08/18 13:19:42;;;;;;;;;;;;;;;22.05;73.78;99817.56;1741079;81;20472;-68
2021/08/18 13:22:10;;;;;;;;;;;;;;;22.13;72.99;99818.06;1737675;81;20449;-65
2021/08/18 13:24:38;;;;;;;;;;;;;;;22.18;72.25;99815.75;1747371;81;20112;-66
2021/08/18 13:27:08;;;;;;;;;;;;;;;22.26;72.37;99816.59;1735145;82;20083;-65
2021/08/18 13:29:34;;;;;;;;;;;;;;;22.37;71.77;99816.75;1721842;83;21641;-64
2021/08/18 13:32:04;;;;;;;;;;;;;;;22.45;70.05;99819.88;1733293;82;20190;-64
2021/08/18 13:34:31;;;;;;;;;;;;;;;22.43;69.23;99814.73;1735665;82;20982;-78
2021/08/18 13:36:58;;;;;;;;;;;;;;;22.35;69.56;99817.91;1736001;82;20153;-63
2021/08/18 13:39:24;;;;;;;;;;;;;;;22.33;69.04;99822.06;1735107;82;20294;-70
2021/08/18 13:41:51;;;;;;;;;;;;;;;22.30;69.10;99821.06;1714092;82;21030;-71
2021/08/18 13:44:20;;;;;;;;;;;;;;;22.30;69.12;99815.76;1719234;82;20130;-73
2021/08/18 13:46:47;;;;;;;;;;;;;;;22.37;69.55;99827.86;1717038;82;20133;-71
2021/08/18 13:49:14;;;;;;;;;;;;;;;22.47;68.68;99823.19;1728196;83;20179;-68
2021/08/18 13:51:42;;;;;;;;;;;;;;;22.51;67.05;99818.70;1728374;83;20091;-66
2021/08/18 13:54:09;;;;;;;;;;;;;;;22.42;66.64;99815.73;1728256;83;21052;-66
2021/08/18 13:56:38;;;;;;;;;;;;;;;22.30;66.67;99810.45;1735554;81;20611;-74
2021/08/18 13:59:07;;;;;;;;;;;;;;;22.18;67.31;99809.95;1742283;81;20173;-72
2021/08/18 14:01:34;;;;;;;;;;;;;;;22.12;68.39;99803.15;1735078;81;20133;-66
2021/08/18 14:04:01;;;;;;;;;;;;;;;22.15;68.65;99802.82;1731228;82;20179;-66
2021/08/18 14:06:28;;;;;;;;;;;;;;;22.22;68.64;99809.95;1744262;81;21774;-67
